• Join FlightAware (Why Join?)
  • Login
  • US Flag 
04:56AM EDT


 

Airport Tracker/Info


-or-


 

Live Flight TrackerFlight Track Log ✈ SWA508 ✈ 2013年 06月 14日 ✈ TJSJ / SJU - KMCO

Flight Track Log - Related Links

Times and Time Zones

All times are in EDT time to prevent confusion due to time zone crossing. See the SWA508 flight status page for this flight to view local times or setup timezone preferences in your user account.

Time Position Orientation Groundspeed Altitude Reporting Facility
EDT Latitude Longitude Course Direction KTS MPH feet Rate Location/Type
08:44PM 18.4333 -65.9667 43° Northeast 150 173 1,800  Level San Juan Center
08:45PM 18.4667 -65.9333 43° Northeast 240 276 3,700 2,160 Climbing San Juan Center
08:46PM 18.5167 -65.9833 317° Northwest 260 299 6,200 2,520 Climbing San Juan Center
08:47PM 18.5667 -66.0500 308° West 310 357 8,800 2,520 Climbing San Juan Center
08:48PM 18.6333 -66.1167 317° Northwest 330 380 11,300 2,280 Climbing San Juan Center
08:49PM 18.7000 -66.2000 310° West 370 426 13,500 2,580 Climbing San Juan Center
08:50PM 18.7667 -66.2833 310° West 380 437 16,500 2,580 Climbing San Juan Center
08:51PM 18.8333 -66.3667 310° West 390 449 18,800 2,100 Climbing San Juan Center
08:52PM 18.9000 -66.4500 310° West 390 449 20,700 1,800 Climbing San Juan Center
08:53PM 18.9833 -66.5500 311° West 410 472 22,500 1,680 Climbing San Juan Center
08:54PM 19.0667 -66.6333 317° Northwest 420 483 24,200 1,860 Climbing San Juan Center
08:55PM 19.1500 -66.7167 317° Northwest 420 483 26,300 1,800 Climbing San Juan Center
08:56PM 19.2167 -66.8167 305° West 430 495 27,900 1,320 Climbing San Juan Center
08:57PM 19.3000 -66.9167 311° West 440 506 29,000 1,140 Climbing San Juan Center
08:58PM 19.3833 -67.0167 311° West 450 518 30,200 1,080 Climbing San Juan Center
08:59PM 19.4500 -67.1333 301° West 450 518 31,200 1,380 Climbing San Juan Center
09:00PM 19.5333 -67.2333 311° West 450 518 33,000 1,380 Climbing San Juan Center
09:01PM 19.6167 -67.3333 312° West 450 518 34,100 1,080 Climbing San Juan Center
09:02PM 19.7167 -67.4500 312° West 450 518 35,200 900 Climbing San Juan Center
09:03PM 19.7833 -67.5500 305° West 440 506 36,000 360 Climbing San Juan Center
09:04PM 19.8667 -67.6667 307° West 440 506 36,000  Level San Juan Center
09:05PM 19.9500 -67.7667 312° West 450 518 36,000  Level San Juan Center
09:06PM 20.0167 -67.8667 305° West 440 506 36,000  Level San Juan Center
09:07PM 20.1000 -67.9667 312° West 440 506 36,000  Level San Juan Center
09:08PM 20.1833 -68.0667 312° West 440 506 36,000  Level San Juan Center
09:09PM 20.2486 -68.1697 304° West 456 525 36,000  Level Miami Center
09:10PM 20.3228 -68.2686 309° West 461 531 36,000  Level Miami Center
09:11PM 20.3931 -68.3769 305° West 455 524 36,000  Level Miami Center
09:12PM 20.4633 -68.4808 306° West 450 518 36,000  Level Miami Center
09:13PM 20.5378 -68.5889 306° West 450 518 36,000  Level Miami Center
09:14PM 20.6061 -68.6997 303° West 450 518 36,000  Level Miami Center
09:15PM 20.6806 -68.8081 306° West 450 518 36,000  Level Miami Center
09:16PM 20.7525 -68.9144 306° West 450 518 36,000  Level Miami Center
09:17PM 20.8228 -69.0256 304° West 450 518 36,000  Level Miami Center
09:18PM 20.9011 -69.1319 308° West 450 518 36,000  Level Miami Center
09:19PM 20.9711 -69.2433 304° West 450 518 36,000  Level Miami Center
09:20PM 21.0431 -69.3503 306° West 450 518 36,000  Level Miami Center
09:21PM 21.1150 -69.4594 305° West 450 518 36,000  Level Miami Center
09:22PM 21.1889 -69.5686 306° West 450 518 36,000  Level Miami Center
09:23PM 21.2608 -69.6758 306° West 450 518 36,000  Level Miami Center
09:24PM 21.3283 -69.7858 303° West 450 518 36,000  Level Miami Center
09:25PM 21.4042 -69.8953 307° West 450 518 36,000  Level Miami Center
09:26PM 21.4758 -70.0028 306° West 450 518 36,000  Level Miami Center
09:27PM 21.5453 -70.1131 304° West 450 518 36,000  Level Miami Center
09:28PM 21.6147 -70.2208 305° West 450 518 36,000  Level Miami Center
09:29PM 21.6858 -70.3267 306° West 450 518 36,000  Level Miami Center
09:30PM 21.7550 -70.4328 305° West 445 512 36,000  Level Miami Center
09:31PM 21.8264 -70.5408 305° West 445 512 36,000  Level Miami Center
09:32PM 21.8975 -70.6492 305° West 445 512 36,000  Level Miami Center
09:33PM 21.9664 -70.7578 304° West 445 512 36,000  Level Miami Center
09:34PM 22.0353 -70.8642 305° West 445 512 36,000  Level Miami Center
09:35PM 22.1064 -70.9753 305° West 450 518 36,000  Level Miami Center
09:36PM 22.1775 -71.0864 305° West 450 518 36,000  Level Miami Center
09:37PM 22.2442 -71.1978 303° West 450 518 36,000  Level Miami Center
09:38PM 22.3150 -71.3067 305° West 450 518 36,000  Level Miami Center
09:39PM 22.3836 -71.4158 304° West 450 518 36,000  Level Miami Center
09:40PM 22.4564 -71.5253 306° West 450 518 36,000  Level Miami Center
09:41PM 22.5231 -71.6392 302° West 450 518 36,000  Level Miami Center
09:42PM 22.5958 -71.7511 305° West 450 518 36,000  Level Miami Center
09:43PM 22.6642 -71.8608 304° West 450 518 36,000  Level Miami Center
09:44PM 22.7325 -71.9683 305° West 445 512 36,000  Level Miami Center
09:45PM 22.8006 -72.0761 304° West 445 512 36,000  Level Miami Center
09:46PM 22.8667 -72.1886 303° West 445 512 36,000  Level Miami Center
09:47PM 22.9369 -72.2967 305° West 445 512 36,000  Level Miami Center
09:48PM 23.0008 -72.4092 302° West 445 512 36,000  Level Miami Center
09:49PM 23.0731 -72.5242 304° West 440 506 36,000  Level Miami Center
09:50PM 23.1408 -72.6325 304° West 435 501 36,000  Level Miami Center
09:51PM 23.2108 -72.7431 305° West 435 501 36,000  Level Miami Center
09:52PM 23.2742 -72.8472 304° West 429 494 36,000  Level Miami Center
09:53PM 23.3375 -72.9561 302° West 424 488 36,000  Level Miami Center
09:54PM 23.4092 -73.0650 306° West 430 495 36,000  Level Miami Center
09:55PM 23.4747 -73.1761 303° West 430 495 36,000  Level Miami Center
09:56PM 23.5400 -73.2831 304° West 430 495 36,000  Level Miami Center
09:57PM 23.6053 -73.3944 303° West 435 501 36,000  Level Miami Center
09:58PM 23.6744 -73.5036 305° West 430 495 36,000  Level Miami Center
09:59PM 23.7417 -73.6131 304° West 436 502 36,000  Level Miami Center
10:00PM 23.8089 -73.7225 304° West 436 502 36,000  Level Miami Center
10:01PM 23.8717 -73.8300 303° West 436 502 36,000  Level Miami Center
10:02PM 23.9386 -73.9397 304° West 436 502 36,000  Level Miami Center
10:03PM 24.0056 -74.0497 304° West 436 502 36,000  Level Miami Center
10:04PM 24.0722 -74.1575 304° West 436 502 36,000  Level Miami Center
10:05PM 24.1369 -74.2653 303° West 431 496 36,000  Level Miami Center
10:06PM 24.2036 -74.3778 303° West 431 496 36,000  Level Miami Center
10:07PM 24.2681 -74.4836 304° West 431 496 36,000  Level Miami Center
10:08PM 24.3344 -74.5964 303° West 431 496 36,000  Level Miami Center
10:09PM 24.3989 -74.7047 303° West 431 496 36,000  Level Miami Center
10:10PM 24.4653 -74.8156 303° West 431 496 36,000  Level Miami Center
10:11PM 24.5314 -74.9239 304° West 437 503 36,000  Level Miami Center
10:12PM 24.5978 -75.0372 303° West 437 503 36,000  Level Miami Center
10:13PM 24.6639 -75.1506 303° West 437 503 36,000  Level Miami Center
10:14PM 24.7297 -75.2642 303° West 437 503 36,000  Level Miami Center
10:15PM 24.7981 -75.3800 303° West 442 509 36,000  Level Miami Center
10:16PM 24.8617 -75.4914 302° West 442 509 36,000  Level Miami Center
10:17PM 24.9275 -75.6075 302° West 442 509 36,000  Level Miami Center
10:18PM 24.9806 -75.6942 304° West 442 509 36,000  Level Miami Center
10:19PM 25.0503 -75.8194 302° West 442 509 36,000  Level Miami Center
10:20PM 25.1181 -75.9339 303° West 447 514 36,000  Level Miami Center
10:21PM 25.1897 -76.0528 304° West 452 520 36,000  Level Miami Center
10:22PM 25.2511 -76.1694 300° West 452 520 36,000  Level Miami Center
10:23PM 25.3225 -76.2886 304° West 452 520 36,000  Level Miami Center
10:24PM 25.3897 -76.4056 302° West 452 520 36,000  Level Miami Center
10:25PM 25.4569 -76.5203 303° West 452 520 36,000  Level Miami Center
10:26PM 25.5219 -76.6378 302° West 446 513 36,000  Level Miami Center
10:27PM 25.5850 -76.7528 301° West 446 513 36,000  Level Miami Center
10:28PM 25.6603 -76.8794 303° West 452 520 36,000  Level Miami Center
10:29PM 25.7228 -76.9947 301° West 452 520 36,000  Level Miami Center
10:30PM 25.7853 -77.1081 302° West 445 512 36,000  Level Miami Center
10:31PM 25.8500 -77.2189 303° West 445 512 36,000  Level Miami Center
10:32PM 25.9122 -77.3300 302° West 439 505 36,000  Level Miami Center
10:33PM 25.9725 -77.4411 301° West 433 498 36,000  Level Miami Center
10:34PM 26.0306 -77.5386 304° West 433 498 36,000  Level Miami Center
10:35PM 26.0906 -77.6547 300° West 433 498 36,000  Level Miami Center
10:36PM 26.1547 -77.7639 303° West 433 498 36,000  Level Miami Center
10:37PM 26.2147 -77.8778 300° West 433 498 36,000  Level Miami Center
10:38PM 26.2806 -77.9919 303° West 433 498 36,000  Level Miami Center
10:39PM 26.3422 -78.1086 301° West 433 498 36,000  Level Miami Center
10:40PM 26.4061 -78.2206 303° West 433 498 36,000  Level Miami Center
10:41PM 26.4678 -78.3372 301° West 433 498 36,000  Level Miami Center
10:42PM 26.5311 -78.4542 301° West 433 498 36,000  Level Miami Center
10:43PM 26.5947 -78.5689 302° West 439 505 36,000  Level Miami Center
10:44PM 26.6622 -78.6839 303° West 439 505 36,000  Level Miami Center
10:45PM 26.7256 -78.7986 302° West 439 505 36,000  Level Miami Center
10:46PM 26.7844 -78.9114 300° West 434 499 36,000  Level Miami Center
10:47PM 26.8497 -79.0289 302° West 435 501 36,000  Level Miami Center
10:48PM 26.9106 -79.1442 301° West 435 501 36,000  Level Miami Center
10:49PM 26.9733 -79.2597 301° West 435 501 36,000  Level Miami Center
10:50PM 27.0322 -79.3706 301° West 429 494 36,000  Level Miami Center
10:51PM 27.0928 -79.4839 301° West 429 494 36,000 -60 Level Miami Center
10:52PM 27.1594 -79.6092 301° West 429 494 35,900 -1,080 Descending Miami Center
10:53PM 27.2219 -79.7250 301° West 429 494 33,900 -1,740 Descending Miami Center
10:54PM 27.2822 -79.8386 301° West 429 494 32,500 -1,200 Descending Miami Center
10:55PM 27.3464 -79.9642 300° West 440 506 31,600 -960 Descending Miami Center
10:56PM 27.4086 -80.0853 300° West 445 512 30,600 -1,020 Descending Miami Center
10:57PM 27.4725 -80.2064 301° West 450 518 29,600 -1,080 Descending Miami Center
10:58PM 27.5364 -80.3278 301° West 450 518 28,500 -1,800 Descending Miami Center
10:59PM 27.5964 -80.4419 301° West 445 512 26,000 -2,580 Descending Miami Center
11:00PM 27.6542 -80.5539 300° West 435 501 23,400 -2,520 Descending Miami Center
11:01PM 27.7139 -80.6661 301° West 424 488 20,900 -2,400 Descending Miami Center
11:02PM 27.7694 -80.7714 301° West 409 471 18,600 -2,340 Descending Miami Center
11:04PM 27.8667 -80.9667 299° West 364 419 14,000 -2,280 Descending Orlando TRACON
11:05PM 27.9333 -81.0833 303° West 351 404 11,700 -1,440 Descending Orlando TRACON
11:06PM 28.0167 -81.1333 332° Northwest 343 395 11,000 -360 Descending Orlando TRACON
11:07PM 28.1000 -81.1500 350° North 341 392 11,000 -120 Level Orlando TRACON
11:08PM 28.2000 -81.1667 352° North 341 392 10,800 -660 Descending Orlando TRACON
11:10PM 28.3000 -81.1667 360° North 305 351 9,700 -1,380 Descending Orlando TRACON
11:11PM 28.3667 -81.1833 348° North 281 323 8,000 -2,340 Descending Orlando TRACON
11:12PM 28.4500 -81.1833 360° North 266 306 5,100 -2,760 Descending Orlando TRACON
11:13PM 28.5167 -81.2000 348° North 241 277 2,500 -1,800 Descending Orlando TRACON
11:14PM 28.5333 -81.2500 291° West 169 194 1,500 -600 Descending Orlando TRACON
11:15PM 28.5000 -81.2833 221° Southwest 142 163 1,400 -540 Descending Orlando TRACON
11:16PM 28.4500 -81.3000 196° South 163 188 500 -900 Descending Orlando TRACON
11:18PM 28.4294 -81.3090 199° South  Level Estimated